Time;durP1;ratioP1;P1;durP2;ratioP2;P2;SDS_P1;SDS_P2;PMS_P1;PMS_P2;Temp;Humidity;BMP_temperature;BMP_pressure;BME280_temperature;BME280_humidity;BME280_pressure;Samples;Min_cycle;Max_cycle;Signal;HPM_P1;HPM_P2
2024/05/01 00:00:20;;;;;;;9.88;3.90;;;21.50;55.70;;;;;;5336372;26;20683;-60
2024/05/01 00:02:46;;;;;;;7.00;3.97;;;21.50;55.80;;;;;;5328687;26;20337;-60
2024/05/01 00:05:12;;;;;;;7.97;3.43;;;21.50;55.70;;;;;;5338503;26;20332;-60
2024/05/01 00:07:37;;;;;;;7.22;3.60;;;21.50;55.90;;;;;;5328393;26;20425;-64
2024/05/01 00:10:03;;;;;;;6.77;4.17;;;21.40;55.90;;;;;;5341070;26;20360;-60
2024/05/01 00:12:29;;;;;;;7.60;4.22;;;21.40;56.10;;;;;;5328492;26;20363;-60
2024/05/01 00:14:55;;;;;;;6.47;3.70;;;21.30;56.40;;;;;;5341545;26;20329;-59
2024/05/01 00:17:20;;;;;;;6.55;3.53;;;21.20;56.80;;;;;;5341858;26;20344;-59
2024/05/01 00:19:46;;;;;;;5.13;3.60;;;21.20;57.00;;;;;;5341339;26;20370;-60
2024/05/01 00:22:12;;;;;;;6.93;4.47;;;21.10;57.20;;;;;;5341874;26;20870;-59
2024/05/01 00:24:37;;;;;;;4.53;3.53;;;21.10;57.10;;;;;;5340756;26;20388;-60
2024/05/01 00:27:03;;;;;;;8.07;3.95;;;21.10;57.30;;;;;;5341866;26;20551;-59
2024/05/01 00:29:29;;;;;;;4.53;3.47;;;21.10;57.40;;;;;;5341735;26;20348;-61
2024/05/01 00:31:54;;;;;;;5.07;3.53;;;21.00;57.50;;;;;;5341482;26;20393;-59
2024/05/01 00:34:20;;;;;;;6.00;3.90;;;21.00;57.60;;;;;;5341329;26;20336;-60
2024/05/01 00:36:46;;;;;;;5.17;3.70;;;20.90;57.80;;;;;;5343305;26;20332;-60
2024/05/01 00:39:11;;;;;;;4.80;3.50;;;20.90;57.80;;;;;;5342043;26;20333;-59
2024/05/01 00:41:37;;;;;;;7.37;4.03;;;20.90;57.90;;;;;;5342064;26;20352;-60
2024/05/01 00:44:03;;;;;;;6.22;3.60;;;20.90;58.10;;;;;;5340531;26;20341;-60
2024/05/01 00:46:29;;;;;;;8.00;4.05;;;20.90;58.00;;;;;;5341492;26;20427;-59
2024/05/01 00:48:54;;;;;;;7.07;3.67;;;20.80;58.30;;;;;;5341243;26;20380;-60
2024/05/01 00:51:21;;;;;;;5.88;3.30;;;20.70;58.40;;;;;;5325245;26;20466;-58
2024/05/01 00:53:47;;;;;;;5.72;4.25;;;20.60;58.70;;;;;;5324666;26;20336;-60
2024/05/01 00:56:16;;;;;;;5.38;3.53;;;20.60;58.80;;;;;;5326264;26;20874;-59
2024/05/01 00:58:46;;;;;;;7.90;4.00;;;20.60;59.10;;;;;;5338796;26;20406;-60
2024/05/01 01:01:15;;;;;;;8.20;3.53;;;20.60;59.00;;;;;;5340028;26;20329;-60
2024/05/01 01:03:41;;;;;;;9.57;5.10;;;20.60;59.10;;;;;;5314043;26;20340;-59
2024/05/01 01:06:08;;;;;;;4.53;3.40;;;20.60;59.20;;;;;;5339416;26;20380;-60
2024/05/01 01:08:35;;;;;;;6.85;3.65;;;20.50;59.30;;;;;;5354121;26;20384;-59
2024/05/01 01:11:11;;;;;;;6.90;3.37;;;20.50;59.40;;;;;;5329976;26;20340;-58
2024/05/01 01:13:38;;;;;;;7.63;3.92;;;20.50;59.40;;;;;;5320416;26;20343;-59
2024/05/01 01:16:04;;;;;;;7.13;3.97;;;20.50;59.30;;;;;;5340532;26;20368;-59
2024/05/01 01:18:31;;;;;;;8.40;3.83;;;20.40;59.40;;;;;;5341463;26;20355;-58
2024/05/01 01:20:57;;;;;;;6.43;3.50;;;20.40;59.50;;;;;;5339910;26;20407;-59
2024/05/01 01:23:23;;;;;;;4.93;3.40;;;20.40;59.50;;;;;;5326468;26;20775;-59
2024/05/01 01:25:49;;;;;;;6.63;3.63;;;20.40;59.60;;;;;;5340701;26;20813;-59
2024/05/01 01:28:16;;;;;;;6.53;3.63;;;20.40;59.70;;;;;;5339612;26;20444;-60
2024/05/01 01:30:42;;;;;;;4.47;3.38;;;20.30;59.70;;;;;;5332733;26;20332;-60
2024/05/01 01:33:08;;;;;;;4.90;3.50;;;20.40;59.70;;;;;;5339605;26;20348;-59
2024/05/01 01:35:34;;;;;;;3.90;3.42;;;20.30;59.60;;;;;;5324727;26;20372;-59
2024/05/01 01:37:59;;;;;;;6.05;3.83;;;20.40;59.60;;;;;;5330834;26;20370;-60
2024/05/01 01:40:25;;;;;;;5.07;3.63;;;20.30;59.70;;;;;;5338597;26;20471;-60
2024/05/01 01:42:51;;;;;;;6.05;3.58;;;20.30;59.80;;;;;;5326578;26;20336;-60
2024/05/01 01:45:16;;;;;;;5.50;3.63;;;20.20;60.10;;;;;;5326439;26;20456;-60
2024/05/01 01:47:42;;;;;;;8.83;3.90;;;20.10;60.10;;;;;;5338599;26;20826;-59
2024/05/01 01:50:08;;;;;;;7.55;3.38;;;20.10;60.10;;;;;;5324114;26;20635;-60
2024/05/01 01:52:33;;;;;;;6.63;3.70;;;20.20;60.30;;;;;;5326231;26;21145;-59
2024/05/01 01:54:59;;;;;;;7.20;3.63;;;20.10;60.40;;;;;;5338127;26;20380;-60
2024/05/01 01:57:25;;;;;;;7.55;3.90;;;20.10;60.60;;;;;;5339526;26;20382;-59
2024/05/01 01:59:51;;;;;;;5.72;3.58;;;20.10;60.40;;;;;;5339011;26;20664;-60
2024/05/01 02:02:17;;;;;;;4.55;3.28;;;20.10;60.40;;;;;;5326353;26;20344;-59
2024/05/01 02:04:42;;;;;;;6.73;3.40;;;20.00;60.60;;;;;;5339475;26;20348;-59
2024/05/01 02:07:08;;;;;;;9.32;3.78;;;19.90;60.70;;;;;;5333597;26;20341;-59
2024/05/01 02:09:34;;;;;;;6.43;3.57;;;19.90;61.10;;;;;;5337253;26;20329;-60
2024/05/01 02:11:59;;;;;;;8.15;3.70;;;19.80;61.30;;;;;;5331162;26;20845;-60
2024/05/01 02:14:25;;;;;;;7.20;3.60;;;19.80;61.30;;;;;;5315610;26;20325;-61
2024/05/01 02:16:51;;;;;;;4.43;3.30;;;19.80;61.60;;;;;;5340206;26;20364;-59
2024/05/01 02:19:17;;;;;;;6.25;3.65;;;19.70;62.40;;;;;;5340749;26;20744;-58
2024/05/01 02:21:42;;;;;;;5.77;3.40;;;19.70;61.50;;;;;;5337742;26;20415;-61
2024/05/01 02:24:08;;;;;;;4.05;3.25;;;19.70;61.60;;;;;;5340203;26;20336;-63
2024/05/01 02:26:34;;;;;;;5.50;3.67;;;19.70;61.80;;;;;;5340267;26;20814;-59
2024/05/01 02:29:00;;;;;;;3.97;3.50;;;19.60;61.90;;;;;;5338843;26;20336;-58
2024/05/01 02:31:26;;;;;;;6.33;3.50;;;19.70;61.80;;;;;;5339132;26;20435;-59
2024/05/01 02:33:51;;;;;;;4.78;3.40;;;19.70;62.00;;;;;;5328784;26;20336;-58
2024/05/01 02:36:17;;;;;;;10.20;3.50;;;19.60;62.60;;;;;;5337987;26;20381;-60
2024/05/01 02:38:43;;;;;;;5.88;3.20;;;19.60;62.10;;;;;;5325206;26;20392;-58
2024/05/01 02:41:09;;;;;;;5.20;3.33;;;19.60;62.00;;;;;;5334504;26;20388;-59
2024/05/01 02:43:35;;;;;;;6.15;3.50;;;19.60;61.50;;;;;;5307847;26;20350;-59
2024/05/01 02:46:01;;;;;;;6.18;3.30;;;19.50;61.90;;;;;;5331096;26;20675;-58
2024/05/01 02:48:26;;;;;;;4.73;3.00;;;19.50;62.00;;;;;;5339408;26;20805;-59
2024/05/01 02:50:52;;;;;;;6.07;3.38;;;19.50;62.00;;;;;;5336680;26;20345;-59
2024/05/01 02:53:18;;;;;;;6.50;3.40;;;19.40;62.10;;;;;;5327952;26;20856;-59
2024/05/01 02:55:44;;;;;;;4.93;2.95;;;19.40;62.40;;;;;;5340417;26;20428;-59
2024/05/01 02:58:09;;;;;;;4.53;3.00;;;19.40;62.50;;;;;;5342991;26;20325;-60
2024/05/01 03:00:35;;;;;;;5.87;3.57;;;19.40;62.50;;;;;;5341815;26;20340;-58
2024/05/01 03:03:01;;;;;;;5.07;3.20;;;19.30;62.70;;;;;;5328680;26;20325;-60
2024/05/01 03:05:26;;;;;;;6.00;3.27;;;19.30;62.80;;;;;;5340771;26;20333;-59
2024/05/01 03:07:52;;;;;;;5.15;3.00;;;19.20;63.40;;;;;;5329028;26;20431;-60
2024/05/01 03:10:18;;;;;;;5.97;3.43;;;19.20;63.00;;;;;;5341548;26;20428;-59
2024/05/01 03:12:44;;;;;;;3.60;2.97;;;19.20;63.10;;;;;;5324131;26;20339;-58
2024/05/01 03:15:09;;;;;;;4.95;3.10;;;19.20;63.20;;;;;;5317980;26;20387;-59
2024/05/01 03:17:35;;;;;;;5.07;3.28;;;19.20;62.90;;;;;;5343548;26;20846;-60
2024/05/01 03:20:03;;;;;;;5.20;3.13;;;19.20;62.90;;;;;;5342893;26;20347;-60
2024/05/01 03:22:29;;;;;;;5.60;3.00;;;19.20;63.00;;;;;;5338861;26;20680;-59
2024/05/01 03:24:54;;;;;;;6.38;3.22;;;19.10;63.00;;;;;;5339608;26;20425;-60
2024/05/01 03:27:20;;;;;;;7.80;3.00;;;19.10;63.20;;;;;;5342450;26;20352;-58
2024/05/01 03:29:46;;;;;;;3.58;3.10;;;19.00;63.50;;;;;;5341059;26;20340;-59
2024/05/01 03:32:11;;;;;;;7.40;3.33;;;19.00;63.60;;;;;;5335021;26;20412;-58
2024/05/01 03:34:38;;;;;;;3.95;3.10;;;19.00;63.40;;;;;;5321894;26;20443;-60
2024/05/01 03:37:04;;;;;;;4.47;2.97;;;19.00;63.20;;;;;;5331510;26;20335;-58
2024/05/01 03:39:30;;;;;;;4.40;2.97;;;19.10;63.40;;;;;;5322820;26;20364;-58
2024/05/01 03:41:55;;;;;;;6.30;3.20;;;19.00;63.10;;;;;;5331171;26;20339;-58
2024/05/01 03:44:22;;;;;;;6.68;3.13;;;19.00;63.20;;;;;;5335327;26;20388;-59
2024/05/01 03:46:47;;;;;;;5.32;2.88;;;19.00;63.10;;;;;;5341489;26;20455;-58
2024/05/01 03:49:13;;;;;;;4.40;2.80;;;19.00;63.30;;;;;;5329139;26;20344;-60
2024/05/01 03:51:44;;;;;;;5.10;2.92;;;19.10;63.30;;;;;;5334256;26;20402;-58
2024/05/01 03:54:10;;;;;;;6.03;3.45;;;19.10;63.10;;;;;;5332140;26;20377;-60
2024/05/01 03:56:36;;;;;;;5.00;2.85;;;19.00;63.20;;;;;;5342357;26;21205;-59
2024/05/01 03:59:03;;;;;;;4.50;2.75;;;18.90;63.20;;;;;;5340255;26;20335;-59
2024/05/01 04:01:30;;;;;;;6.70;3.15;;;19.00;63.30;;;;;;5327068;26;20340;-60
2024/05/01 04:03:55;;;;;;;4.70;2.90;;;19.00;63.40;;;;;;5319292;26;20336;-58
2024/05/01 04:06:22;;;;;;;6.73;2.70;;;18.90;63.50;;;;;;5336046;26;20870;-60
2024/05/01 04:08:48;;;;;;;9.10;3.40;;;19.00;63.30;;;;;;5327788;26;20392;-59
2024/05/01 04:11:16;;;;;;;7.77;3.00;;;19.00;63.40;;;;;;5340693;26;20364;-60
2024/05/01 04:13:42;;;;;;;8.43;3.40;;;18.90;63.40;;;;;;5338984;26;20333;-60
2024/05/01 04:16:08;;;;;;;4.60;2.80;;;19.00;63.40;;;;;;5333883;26;20393;-59
2024/05/01 04:18:34;;;;;;;3.53;2.80;;;18.90;63.40;;;;;;5338613;26;20329;-60
2024/05/01 04:21:00;;;;;;;8.13;2.70;;;19.00;63.40;;;;;;5327743;26;20724;-59
2024/05/01 04:23:26;;;;;;;6.00;2.95;;;18.90;63.50;;;;;;5339637;26;20333;-59
2024/05/01 04:25:51;;;;;;;5.03;2.90;;;18.90;63.90;;;;;;5340983;26;20332;-59
2024/05/01 04:28:17;;;;;;;5.18;2.75;;;18.90;64.00;;;;;;5337842;26;20344;-60
2024/05/01 04:30:43;;;;;;;5.63;2.77;;;18.90;63.90;;;;;;5331031;26;20818;-59
2024/05/01 04:33:08;;;;;;;5.55;3.00;;;18.90;64.00;;;;;;5311063;26;20331;-59
2024/05/01 04:35:34;;;;;;;4.75;2.92;;;18.90;64.00;;;;;;5320002;26;20370;-58
2024/05/01 04:38:00;;;;;;;4.93;3.00;;;18.90;63.80;;;;;;5317416;26;20423;-58
2024/05/01 04:40:25;;;;;;;5.70;3.00;;;18.90;63.70;;;;;;5323109;26;20345;-60
2024/05/01 04:42:51;;;;;;;5.93;2.87;;;18.90;64.50;;;;;;5323039;26;20339;-59
2024/05/01 04:45:17;;;;;;;5.50;3.40;;;19.00;63.70;;;;;;5314192;26;20379;-60
2024/05/01 04:47:42;;;;;;;6.82;3.10;;;19.00;63.50;;;;;;5320096;26;20408;-59
2024/05/01 04:50:08;;;;;;;4.90;2.70;;;19.10;63.50;;;;;;5326288;26;20333;-58
2024/05/01 04:52:34;;;;;;;2.72;2.40;;;19.10;63.50;;;;;;5330553;26;20400;-58
2024/05/01 04:55:03;;;;;;;5.97;2.87;;;19.10;63.50;;;;;;5309917;26;20343;-60
2024/05/01 04:57:29;;;;;;;4.57;2.90;;;19.00;63.60;;;;;;5316444;26;20344;-59
2024/05/01 04:59:55;;;;;;;3.67;2.67;;;19.00;63.70;;;;;;5327080;26;21034;-59
2024/05/01 05:02:22;;;;;;;3.80;2.50;;;19.10;63.70;;;;;;5329382;26;20353;-59
2024/05/01 05:04:48;;;;;;;6.28;2.85;;;19.10;63.70;;;;;;5324162;26;21176;-59
2024/05/01 05:07:13;;;;;;;3.38;2.40;;;19.10;63.80;;;;;;5308450;26;20420;-58
2024/05/01 05:09:39;;;;;;;4.83;2.80;;;19.20;63.20;;;;;;5311179;26;20455;-60
2024/05/01 05:12:05;;;;;;;4.07;2.67;;;19.30;63.10;;;;;;5327820;26;20383;-59
2024/05/01 05:14:31;;;;;;;4.53;2.63;;;19.30;63.40;;;;;;5324797;26;20674;-59
2024/05/01 05:16:56;;;;;;;5.10;2.40;;;19.20;63.40;;;;;;5330294;26;20335;-60
2024/05/01 05:19:22;;;;;;;3.77;2.60;;;19.30;63.30;;;;;;5334731;26;20418;-60
2024/05/01 05:21:48;;;;;;;3.95;2.60;;;19.40;63.00;;;;;;5339116;26;20407;-59
2024/05/01 05:24:13;;;;;;;3.63;2.60;;;19.40;62.90;;;;;;5330528;26;20373;-57
2024/05/01 05:26:39;;;;;;;3.80;2.20;;;19.40;62.80;;;;;;5340658;26;20340;-59
2024/05/01 05:29:05;;;;;;;4.20;2.50;;;19.40;63.10;;;;;;5339207;26;20337;-60
2024/05/01 05:31:30;;;;;;;7.53;2.63;;;19.40;62.80;;;;;;5339000;26;20717;-60
2024/05/01 05:33:56;;;;;;;3.45;2.30;;;19.50;62.50;;;;;;5326202;26;20336;-59
2024/05/01 05:36:22;;;;;;;3.50;2.30;;;19.60;62.50;;;;;;5339638;26;20819;-62
2024/05/01 05:38:48;;;;;;;3.97;2.40;;;19.60;62.50;;;;;;5326649;26;20360;-60
2024/05/01 05:41:14;;;;;;;3.45;2.17;;;19.70;62.30;;;;;;5340007;26;20682;-58
2024/05/01 05:43:40;;;;;;;5.00;2.57;;;19.70;62.10;;;;;;5326298;26;20421;-60
2024/05/01 05:46:06;;;;;;;5.35;2.53;;;19.80;62.10;;;;;;5341638;26;20761;-59
2024/05/01 05:48:31;;;;;;;5.63;2.30;;;19.80;62.00;;;;;;5341548;26;20329;-60
2024/05/01 05:50:57;;;;;;;2.40;2.20;;;19.80;62.20;;;;;;5337953;26;20329;-58
2024/05/01 05:53:23;;;;;;;4.43;3.13;;;19.80;62.30;;;;;;5324791;26;20813;-58
2024/05/01 05:55:48;;;;;;;8.95;3.08;;;19.90;62.10;;;;;;5340142;26;20773;-59
2024/05/01 05:58:14;;;;;;;6.60;3.00;;;19.90;62.00;;;;;;5340689;26;20913;-60
2024/05/01 06:00:40;;;;;;;4.33;2.90;;;19.90;62.00;;;;;;5341006;26;20783;-57
2024/05/01 06:03:09;;;;;;;3.20;2.38;;;20.00;62.00;;;;;;5338736;26;20806;-58
2024/05/01 06:05:34;;;;;;;3.92;2.42;;;20.10;62.00;;;;;;5324139;26;20341;-60
2024/05/01 06:08:00;;;;;;;3.20;2.63;;;20.20;61.20;;;;;;5324642;26;20328;-58
2024/05/01 06:10:26;;;;;;;3.20;2.20;;;20.20;60.80;;;;;;5311681;26;20951;-57
2024/05/01 06:12:51;;;;;;;3.17;2.23;;;20.30;60.70;;;;;;5332212;26;20335;-59
2024/05/01 06:15:17;;;;;;;4.25;2.20;;;20.40;60.50;;;;;;5331093;26;20336;-59
2024/05/01 06:17:42;;;;;;;5.47;2.40;;;20.50;59.60;;;;;;5326405;26;20861;-59
2024/05/01 06:20:08;;;;;;;3.85;2.20;;;20.50;59.40;;;;;;5340661;26;20333;-59
2024/05/01 06:22:35;;;;;;;5.97;2.40;;;20.60;59.10;;;;;;5335891;26;20397;-58
2024/05/01 06:25:01;;;;;;;4.50;2.25;;;20.60;58.80;;;;;;5325589;26;20359;-58
2024/05/01 06:27:27;;;;;;;3.87;2.30;;;20.60;59.10;;;;;;5334171;26;20324;-59
2024/05/01 06:29:52;;;;;;;7.82;2.40;;;20.60;59.00;;;;;;5341590;26;20410;-60
2024/05/01 06:32:18;;;;;;;6.20;2.25;;;20.60;59.10;;;;;;5330464;26;20856;-59
2024/05/01 06:34:44;;;;;;;6.40;2.83;;;20.70;58.70;;;;;;5336049;26;20328;-60
2024/05/01 06:37:09;;;;;;;4.93;2.33;;;20.80;58.40;;;;;;5326611;26;20805;-58
2024/05/01 06:39:35;;;;;;;5.00;2.55;;;20.80;58.50;;;;;;5340048;26;20476;-60
2024/05/01 06:42:01;;;;;;;2.88;2.28;;;20.80;58.40;;;;;;5344010;26;20359;-60
2024/05/01 06:44:26;;;;;;;4.93;2.20;;;20.90;58.40;;;;;;5341777;26;20354;-60
2024/05/01 06:46:52;;;;;;;3.97;2.20;;;20.90;58.20;;;;;;5342743;26;20333;-59
2024/05/01 06:49:18;;;;;;;6.18;2.60;;;21.00;58.30;;;;;;5329024;26;20336;-58
2024/05/01 06:51:43;;;;;;;4.67;2.10;;;21.00;58.00;;;;;;5341818;26;20372;-58
2024/05/01 06:54:09;;;;;;;4.80;2.47;;;21.10;58.10;;;;;;5328524;26;20396;-60
2024/05/01 06:56:35;;;;;;;3.88;2.10;;;21.20;57.70;;;;;;5339453;26;20345;-59
2024/05/01 06:59:00;;;;;;;6.20;2.20;;;21.20;57.60;;;;;;5338209;26;20394;-59
2024/05/01 07:01:26;;;;;;;4.80;2.10;;;21.20;57.60;;;;;;5332193;26;20680;-58
2024/05/01 07:03:52;;;;;;;8.77;2.60;;;21.30;57.40;;;;;;5328125;26;20675;-60
2024/05/01 07:06:17;;;;;;;6.67;2.30;;;21.40;57.00;;;;;;5340251;26;20336;-59
2024/05/01 07:08:43;;;;;;;2.80;2.00;;;21.40;56.80;;;;;;5341655;26;20411;-60
2024/05/01 07:11:09;;;;;;;4.93;2.00;;;21.50;56.50;;;;;;5343561;26;20373;-59
2024/05/01 07:13:34;;;;;;;6.70;2.00;;;21.50;56.30;;;;;;5338654;26;20802;-60
2024/05/01 07:16:00;;;;;;;3.22;2.08;;;21.50;56.80;;;;;;5337236;26;20384;-60
2024/05/01 07:18:26;;;;;;;4.47;1.90;;;21.50;56.30;;;;;;5327451;26;20369;-58
2024/05/01 07:20:52;;;;;;;6.63;1.75;;;21.60;55.80;;;;;;5329168;26;20341;-59
2024/05/01 07:23:20;;;;;;;6.97;2.13;;;21.60;55.90;;;;;;5330270;26;20698;-59
2024/05/01 07:25:46;;;;;;;4.07;2.10;;;21.70;55.60;;;;;;5337264;26;20325;-59
2024/05/01 07:28:12;;;;;;;3.47;1.90;;;21.70;55.50;;;;;;5337104;26;20332;-56
2024/05/01 07:30:38;;;;;;;6.10;2.15;;;21.80;55.60;;;;;;5328972;26;20688;-60
2024/05/01 07:33:09;;;;;;;4.40;2.00;;;21.90;55.50;;;;;;5327468;26;20357;-59
2024/05/01 07:35:35;;;;;;;5.50;1.98;;;22.00;55.30;;;;;;5338828;26;20354;-58
2024/05/01 07:38:01;;;;;;;4.93;2.05;;;22.10;54.50;;;;;;5334517;26;20347;-58
2024/05/01 07:40:26;;;;;;;3.80;2.03;;;22.00;54.70;;;;;;5334405;26;20349;-59
2024/05/01 07:42:52;;;;;;;3.60;1.70;;;22.10;54.80;;;;;;5335612;26;20332;-59
2024/05/01 07:45:18;;;;;;;5.47;1.60;;;22.20;54.10;;;;;;5335106;26;20440;-59
2024/05/01 07:47:43;;;;;;;7.90;1.93;;;22.20;53.90;;;;;;5328624;26;20358;-59
2024/05/01 07:50:10;;;;;;;3.53;1.70;;;22.30;53.80;;;;;;5340376;26;20329;-60
2024/05/01 07:52:36;;;;;;;5.65;1.70;;;22.30;53.50;;;;;;5339650;26;20341;-61
2024/05/01 07:55:04;;;;;;;3.97;1.70;;;22.30;53.20;;;;;;5329074;26;20397;-58
2024/05/01 07:57:29;;;;;;;4.07;1.90;;;22.30;53.50;;;;;;5327246;26;21203;-59
2024/05/01 07:59:55;;;;;;;4.73;1.90;;;22.20;53.70;;;;;;5343150;26;20329;-59
2024/05/01 08:02:21;;;;;;;4.57;1.80;;;22.30;53.50;;;;;;5340045;26;21101;-60
2024/05/01 08:04:47;;;;;;;4.80;1.70;;;22.40;53.20;;;;;;5327768;26;20381;-60
2024/05/01 08:07:12;;;;;;;1.98;1.60;;;22.40;53.50;;;;;;5338663;26;20325;-58
2024/05/01 08:09:39;;;;;;;3.38;1.83;;;22.40;53.40;;;;;;5319733;26;20881;-59
2024/05/01 08:12:05;;;;;;;3.42;2.08;;;22.50;53.30;;;;;;5333041;26;20377;-59
2024/05/01 08:14:31;;;;;;;4.23;1.40;;;22.50;53.20;;;;;;5342093;26;20336;-58
2024/05/01 08:16:59;;;;;;;1.58;1.40;;;22.60;53.30;;;;;;5336344;26;20431;-60
2024/05/01 08:19:24;;;;;;;4.60;1.70;;;22.70;53.00;;;;;;5338801;26;20831;-58
2024/05/01 08:21:50;;;;;;;6.20;1.48;;;22.80;52.30;;;;;;5336788;26;20388;-59
2024/05/01 08:24:16;;;;;;;4.03;1.52;;;22.80;52.40;;;;;;5331471;26;20394;-59
2024/05/01 08:26:41;;;;;;;4.17;1.60;;;22.90;52.40;;;;;;5322690;26;20392;-61
2024/05/01 08:29:07;;;;;;;3.17;2.10;;;23.00;52.40;;;;;;5335965;26;20492;-60
2024/05/01 08:31:33;;;;;;;5.35;1.77;;;23.00;52.20;;;;;;5336213;26;20863;-61
2024/05/01 08:33:59;;;;;;;6.10;1.47;;;23.10;52.30;;;;;;5337617;26;20321;-61
2024/05/01 08:36:24;;;;;;;4.20;1.75;;;23.10;51.60;;;;;;5335016;26;20470;-60
2024/05/01 08:38:50;;;;;;;3.37;1.50;;;23.20;51.80;;;;;;5338274;26;20332;-61
2024/05/01 08:41:16;;;;;;;3.07;1.60;;;23.30;51.50;;;;;;5337601;26;20953;-59
2024/05/01 08:43:44;;;;;;;4.32;1.50;;;23.30;51.10;;;;;;5335268;26;20393;-60
2024/05/01 08:46:10;;;;;;;4.45;2.00;;;23.60;50.90;;;;;;5334519;26;20329;-62
2024/05/01 08:48:38;;;;;;;3.90;1.80;;;24.20;49.70;;;;;;5340123;26;20396;-60
2024/05/01 08:51:08;;;;;;;5.80;1.65;;;24.60;48.80;;;;;;5330919;26;20447;-59
2024/05/01 08:53:38;;;;;;;3.03;1.60;;;24.80;48.90;;;;;;5338271;26;20804;-64
2024/05/01 08:56:05;;;;;;;4.38;1.90;;;24.70;49.40;;;;;;5338026;26;20337;-61
2024/05/01 08:58:32;;;;;;;2.80;1.67;;;25.50;48.20;;;;;;5336933;26;20369;-61
2024/05/01 09:00:59;;;;;;;6.70;1.58;;;27.00;45.90;;;;;;5324873;26;20351;-56
2024/05/01 09:03:24;;;;;;;5.45;1.48;;;26.90;45.10;;;;;;5319771;26;20773;-60
2024/05/01 09:05:51;;;;;;;4.57;1.70;;;25.30;46.90;;;;;;5316633;26;20319;-56
2024/05/01 09:08:17;;;;;;;3.80;2.05;;;24.60;48.20;;;;;;5328200;26;20383;-58
2024/05/01 09:10:43;;;;;;;6.18;1.92;;;24.30;49.10;;;;;;5324938;26;20350;-56
2024/05/01 09:13:10;;;;;;;5.13;2.00;;;24.40;48.90;;;;;;5325640;26;20380;-57
2024/05/01 09:15:36;;;;;;;6.68;1.95;;;24.30;49.40;;;;;;5337782;26;20344;-56
2024/05/01 09:18:17;;;;;;;9.30;2.25;;;24.10;49.20;;;;;;5340275;26;20707;-57
2024/05/01 09:20:56;;;;;;;3.78;1.67;;;24.00;49.80;;;;;;5337445;26;20981;-63
2024/05/01 09:23:23;;;;;;;4.05;1.70;;;24.20;50.10;;;;;;5339547;26;20325;-64
2024/05/01 09:25:49;;;;;;;5.32;1.60;;;24.20;48.80;;;;;;5339289;26;20344;-62
2024/05/01 09:28:14;;;;;;;4.57;1.52;;;24.30;49.30;;;;;;5340233;26;20438;-62
2024/05/01 09:30:44;;;;;;;3.28;1.55;;;24.30;48.60;;;;;;5337166;26;20519;-62
2024/05/01 09:33:10;;;;;;;4.30;1.70;;;24.40;48.80;;;;;;5328945;26;20702;-63
2024/05/01 09:35:36;;;;;;;4.90;1.48;;;24.40;48.30;;;;;;5325985;26;20346;-63
2024/05/01 09:38:22;;;;;;;3.72;1.63;;;24.40;48.20;;;;;;5319217;26;20441;-61
2024/05/01 09:41:02;;;;;;;4.47;1.67;;;24.50;48.80;;;;;;5335219;26;20834;-63
2024/05/01 09:43:31;;;;;;;8.77;1.50;;;24.50;48.20;;;;;;5333720;26;20368;-64
2024/05/01 09:45:59;;;;;;;4.07;1.60;;;24.60;48.30;;;;;;5328899;26;20348;-63
2024/05/01 09:48:25;;;;;;;10.20;1.60;;;24.70;48.10;;;;;;5323190;26;20343;-65
2024/05/01 09:50:55;;;;;;;5.50;1.80;;;25.00;48.40;;;;;;5319325;26;20385;-66
2024/05/01 09:53:21;;;;;;;4.15;2.00;;;25.10;48.10;;;;;;5322956;26;20373;-64
2024/05/01 09:55:48;;;;;;;3.72;1.50;;;25.20;47.30;;;;;;5328376;26;20393;-68
2024/05/01 09:58:14;;;;;;;4.60;1.50;;;25.40;47.30;;;;;;5345165;26;20335;-65
2024/05/01 10:00:40;;;;;;;2.45;1.33;;;25.50;46.90;;;;;;5324318;26;20328;-63
2024/05/01 10:03:12;;;;;;;5.90;1.50;;;25.60;46.90;;;;;;5312696;26;20852;-62
2024/05/01 10:05:39;;;;;;;4.90;1.50;;;25.80;46.40;;;;;;5361906;26;20340;-61
2024/05/01 10:08:05;;;;;;;3.33;1.43;;;25.80;46.10;;;;;;5371703;26;20324;-67
2024/05/01 10:10:33;;;;;;;3.85;1.42;;;26.00;46.30;;;;;;5342690;26;20367;-63
2024/05/01 10:13:10;;;;;;;3.70;1.27;;;26.10;45.90;;;;;;5341780;26;20328;-64
2024/05/01 10:15:43;;;;;;;5.93;1.73;;;26.50;46.00;;;;;;5342374;26;20325;-64
2024/05/01 10:18:20;;;;;;;5.77;1.50;;;26.60;45.20;;;;;;5343213;26;20569;-62
2024/05/01 10:20:53;;;;;;;3.13;1.60;;;26.70;44.90;;;;;;5310465;26;20409;-59
2024/05/01 10:23:21;;;;;;;4.20;1.80;;;27.00;45.00;;;;;;5342642;26;20388;-60
2024/05/01 10:25:52;;;;;;;4.85;1.60;;;27.20;44.70;;;;;;5341823;26;20942;-59
2024/05/01 10:28:28;;;;;;;4.82;1.70;;;27.20;43.90;;;;;;5341264;26;20430;-61
2024/05/01 10:30:59;;;;;;;9.13;1.60;;;27.20;43.80;;;;;;5337831;26;20345;-61
2024/05/01 10:33:34;;;;;;;6.55;1.88;;;27.50;43.80;;;;;;5341642;26;20348;-61
2024/05/01 10:36:17;;;;;;;4.15;1.90;;;27.70;44.10;;;;;;5339933;26;20328;-62
2024/05/01 10:38:43;;;;;;;4.35;1.73;;;27.80;43.50;;;;;;5342585;26;20340;-59
2024/05/01 10:41:19;;;;;;;4.72;1.45;;;27.90;43.70;;;;;;5340208;26;20395;-61
2024/05/01 10:43:55;;;;;;;3.67;1.45;;;28.00;43.10;;;;;;5342561;26;20372;-61
2024/05/01 10:46:26;;;;;;;3.35;1.60;;;27.80;42.60;;;;;;5340647;26;20693;-60
2024/05/01 10:48:53;;;;;;;3.73;1.50;;;27.90;43.00;;;;;;5340065;26;20714;-60
2024/05/01 10:51:20;;;;;;;3.25;1.60;;;28.00;42.80;;;;;;5339827;26;20340;-60
2024/05/01 10:53:46;;;;;;;2.85;1.73;;;28.20;42.50;;;;;;5342483;26;20348;-61
2024/05/01 10:56:12;;;;;;;4.82;1.58;;;28.40;42.60;;;;;;5341948;26;20414;-58
2024/05/01 10:58:41;;;;;;;4.80;1.60;;;28.60;42.40;;;;;;5340277;26;20333;-56
2024/05/01 11:01:07;;;;;;;2.78;1.67;;;28.80;42.10;;;;;;5336683;26;20951;-61
2024/05/01 11:03:33;;;;;;;5.43;1.70;;;29.00;41.90;;;;;;5338692;26;20380;-61
2024/05/01 11:05:59;;;;;;;4.85;1.40;;;29.10;41.20;;;;;;5341311;26;20333;-62
2024/05/01 11:08:25;;;;;;;4.13;1.33;;;29.20;41.00;;;;;;5340848;26;20422;-62
2024/05/01 11:10:53;;;;;;;2.75;1.35;;;29.40;40.70;;;;;;5337849;26;20329;-61
2024/05/01 11:13:24;;;;;;;2.83;1.40;;;29.40;41.10;;;;;;5315280;26;20479;-61
2024/05/01 11:15:50;;;;;;;2.00;1.50;;;29.60;40.80;;;;;;5316737;26;20377;-62
2024/05/01 11:18:16;;;;;;;2.50;1.47;;;29.60;41.00;;;;;;5342521;26;20328;-60
2024/05/01 11:20:41;;;;;;;1.93;1.63;;;29.70;40.90;;;;;;5338307;26;20404;-61
2024/05/01 11:23:08;;;;;;;5.70;1.60;;;29.90;40.60;;;;;;5341834;26;20807;-61
2024/05/01 11:25:34;;;;;;;4.35;1.70;;;29.90;40.50;;;;;;5341157;26;20404;-62
2024/05/01 11:28:00;;;;;;;6.32;1.55;;;30.10;40.20;;;;;;5341956;26;20756;-61
2024/05/01 11:30:26;;;;;;;3.28;1.90;;;30.00;40.20;;;;;;5339546;26;20401;-61
2024/05/01 11:32:52;;;;;;;7.35;1.60;;;30.10;40.00;;;;;;5340064;26;20348;-61
2024/05/01 11:35:18;;;;;;;4.47;1.40;;;30.10;39.90;;;;;;5338352;26;21269;-64
2024/05/01 11:37:44;;;;;;;3.33;1.33;;;30.20;39.60;;;;;;5341861;26;20366;-63
2024/05/01 11:40:16;;;;;;;2.67;1.20;;;30.30;39.40;;;;;;5341405;26;20336;-63
2024/05/01 11:42:42;;;;;;;3.17;1.80;;;30.40;39.10;;;;;;5340278;26;20329;-63
2024/05/01 11:45:07;;;;;;;3.77;1.77;;;30.50;39.10;;;;;;5340847;26;20333;-63
2024/05/01 11:47:33;;;;;;;3.95;1.60;;;30.70;38.90;;;;;;5336365;26;20336;-63
2024/05/01 11:49:59;;;;;;;6.03;1.67;;;31.00;38.60;;;;;;5338566;26;21144;-63
2024/05/01 11:52:24;;;;;;;3.38;1.70;;;31.00;39.20;;;;;;5332006;26;20700;-63
2024/05/01 11:54:50;;;;;;;5.13;1.75;;;31.20;38.40;;;;;;5330055;26;20465;-63
2024/05/01 11:57:15;;;;;;;6.60;2.03;;;31.50;38.40;;;;;;5340009;26;20329;-63
2024/05/01 11:59:42;;;;;;;6.27;2.30;;;31.50;38.20;;;;;;5338675;26;20324;-63
2024/05/01 12:02:10;;;;;;;6.90;2.20;;;31.50;38.30;;;;;;5337340;26;20340;-64
2024/05/01 12:04:36;;;;;;;8.43;2.50;;;31.60;38.00;;;;;;5340302;26;20332;-63
2024/05/01 12:07:13;;;;;;;5.07;2.10;;;31.60;38.50;;;;;;5331893;26;20787;-64
2024/05/01 12:09:44;;;;;;;5.53;2.03;;;31.60;38.20;;;;;;5327035;26;20985;-62
2024/05/01 12:12:10;;;;;;;5.45;1.80;;;31.80;37.70;;;;;;5320522;26;20437;-63
2024/05/01 12:14:36;;;;;;;4.72;2.00;;;32.00;37.50;;;;;;5306624;26;20339;-62
2024/05/01 12:17:02;;;;;;;4.40;1.60;;;32.20;37.30;;;;;;5312403;26;20352;-63
2024/05/01 12:19:29;;;;;;;4.37;1.57;;;32.30;36.90;;;;;;5337919;26;20329;-64
2024/05/01 12:21:55;;;;;;;5.03;1.65;;;32.50;36.60;;;;;;5364540;26;20841;-63
2024/05/01 12:24:28;;;;;;;5.05;1.60;;;32.80;36.00;;;;;;5336626;26;20395;-64
2024/05/01 12:26:55;;;;;;;3.58;1.45;;;32.60;36.50;;;;;;5338226;26;20418;-63
2024/05/01 12:29:46;;;;;;;3.10;1.75;;;32.80;36.00;;;;;;5341327;26;20333;-64
2024/05/01 12:32:39;;;;;;;4.30;1.98;;;32.90;35.60;;;;;;5340666;26;21071;-61
2024/05/01 12:35:19;;;;;;;4.47;1.38;;;33.00;36.20;;;;;;5338277;26;20385;-61
2024/05/01 12:37:50;;;;;;;5.57;1.52;;;33.10;35.80;;;;;;5324188;26;20332;-64
2024/05/01 12:40:21;;;;;;;2.75;1.38;;;33.20;35.50;;;;;;5306794;26;20332;-63
2024/05/01 12:42:51;;;;;;;8.30;2.10;;;33.30;35.30;;;;;;5341872;26;20333;-64
2024/05/01 12:45:41;;;;;;;7.95;1.80;;;33.60;34.70;;;;;;5339076;26;20733;-64